EJU15BJ EKCH-EDDB
Flight info
| Callsign | EJU15BJ |
|---|---|
| Flight time | 0h 42m |
| Altitude | 31000 |
| Route | SALLO M44 KOGIM M725 RODEP T280 KETAP KETAP1R |
| Aircraft | A21N/M-SDE2E3FGHIRWXY/LB1 |
Departure
| Time | 2026-05-07 21:53 |
|---|---|
| Airport | Copenhagen Kastrup Airport (EKCH) |
Arrival
| Time | 2026-05-07 22:35 |
|---|---|
| Airport | Berlin Brandenburg Airport (EDDB) |
| Time | Latitude | Longitude | Altitude | Speed | Heading |
|---|---|---|---|---|---|
| 2026-05-07 21:30 | 55.62515 | 12.65840 | 22 ft | 0 kts | 359° |
| 2026-05-07 21:42 | 55.62509 | 12.65840 | 22 ft | 4 kts | 359° |
| 2026-05-07 21:42 | 55.62482 | 12.65841 | 22 ft | 4 kts | 358° |
| 2026-05-07 21:42 | 55.62461 | 12.65843 | 23 ft | 4 kts | 338° |
| 2026-05-07 21:43 | 55.62446 | 12.65871 | 26 ft | 4 kts | 280° |
| 2026-05-07 21:43 | 55.62445 | 12.65915 | 26 ft | 4 kts | 269° |
| 2026-05-07 21:43 | 55.62446 | 12.65951 | 26 ft | 0 kts | 269° |
| 2026-05-07 21:47 | 55.62446 | 12.65941 | 26 ft | 2 kts | 269° |
| 2026-05-07 21:47 | 55.62445 | 12.65879 | 26 ft | 10 kts | 269° |
| 2026-05-07 21:47 | 55.62443 | 12.65723 | 22 ft | 14 kts | 269° |
| 2026-05-07 21:48 | 55.62442 | 12.65545 | 22 ft | 15 kts | 269° |
| 2026-05-07 21:48 | 55.62441 | 12.65348 | 22 ft | 17 kts | 268° |
| 2026-05-07 21:48 | 55.62403 | 12.65208 | 22 ft | 13 kts | 188° |
| 2026-05-07 21:48 | 55.62305 | 12.65205 | 24 ft | 15 kts | 185° |
| 2026-05-07 21:49 | 55.62199 | 12.65170 | 23 ft | 16 kts | 209° |
| 2026-05-07 21:49 | 55.62099 | 12.65056 | 23 ft | 18 kts | 213° |
| 2026-05-07 21:49 | 55.61989 | 12.64926 | 23 ft | 20 kts | 213° |
| 2026-05-07 21:49 | 55.61873 | 12.64789 | 23 ft | 21 kts | 213° |
| 2026-05-07 21:50 | 55.61748 | 12.64646 | 22 ft | 22 kts | 211° |
| 2026-05-07 21:50 | 55.61614 | 12.64498 | 22 ft | 23 kts | 214° |
| 2026-05-07 21:50 | 55.61477 | 12.64335 | 24 ft | 24 kts | 213° |
| 2026-05-07 21:50 | 55.61330 | 12.64170 | 22 ft | 26 kts | 212° |
| 2026-05-07 21:51 | 55.61177 | 12.63996 | 25 ft | 27 kts | 212° |
| 2026-05-07 21:51 | 55.61017 | 12.63814 | 25 ft | 28 kts | 212° |
| 2026-05-07 21:51 | 55.60849 | 12.63624 | 22 ft | 28 kts | 213° |
| 2026-05-07 21:51 | 55.60787 | 12.63605 | 24 ft | 8 kts | 155° |
| 2026-05-07 21:52 | 55.60740 | 12.63675 | 22 ft | 10 kts | 135° |
| 2026-05-07 21:52 | 55.60692 | 12.63775 | 23 ft | 12 kts | 128° |
| 2026-05-07 21:52 | 55.60703 | 12.63918 | 24 ft | 15 kts | 43° |
| 2026-05-07 21:52 | 55.60914 | 12.64253 | 24 ft | 79 kts | 41° |
| 2026-05-07 21:53 | 55.61509 | 12.65168 | 22 ft | 145 kts | 41° |
| 2026-05-07 21:53 | 55.62318 | 12.66448 | 483 ft | 156 kts | 41° |
| 2026-05-07 21:53 | 55.63140 | 12.67731 | 1171 ft | 164 kts | 40° |
| 2026-05-07 21:53 | 55.64013 | 12.69214 | 1588 ft | 186 kts | 53° |
| 2026-05-07 21:54 | 55.64350 | 12.71532 | 2012 ft | 211 kts | 95° |
| 2026-05-07 21:54 | 55.63717 | 12.74033 | 2339 ft | 242 kts | 133° |
| 2026-05-07 21:54 | 55.62270 | 12.75760 | 2965 ft | 258 kts | 155° |
| 2026-05-07 21:54 | 55.60525 | 12.76657 | 3844 ft | 264 kts | 168° |
| 2026-05-07 21:55 | 55.58712 | 12.77277 | 4766 ft | 267 kts | 168° |
| 2026-05-07 21:55 | 55.56870 | 12.77897 | 5707 ft | 269 kts | 168° |
| 2026-05-07 21:55 | 55.55629 | 12.78321 | 6354 ft | 269 kts | 168° |
| 2026-05-07 21:55 | 55.53188 | 12.79166 | 7508 ft | 272 kts | 168° |
| 2026-05-07 21:56 | 55.51953 | 12.79599 | 8057 ft | 275 kts | 168° |
| 2026-05-07 21:56 | 55.50060 | 12.80262 | 8933 ft | 279 kts | 167° |
| 2026-05-07 21:56 | 55.48138 | 12.80938 | 9806 ft | 283 kts | 167° |
| 2026-05-07 21:56 | 55.46149 | 12.81637 | 10496 ft | 295 kts | 167° |
| 2026-05-07 21:57 | 55.44092 | 12.82363 | 10859 ft | 316 kts | 167° |
| 2026-05-07 21:57 | 55.41897 | 12.83134 | 11444 ft | 327 kts | 168° |
| 2026-05-07 21:57 | 55.39647 | 12.83924 | 12220 ft | 331 kts | 168° |
| 2026-05-07 21:57 | 55.37372 | 12.84722 | 13035 ft | 335 kts | 168° |
| 2026-05-07 21:58 | 55.35073 | 12.85528 | 13850 ft | 339 kts | 168° |
| 2026-05-07 21:58 | 55.32748 | 12.86344 | 14572 ft | 343 kts | 168° |
| 2026-05-07 21:58 | 55.30395 | 12.87167 | 15271 ft | 347 kts | 168° |
| 2026-05-07 21:58 | 55.28016 | 12.87997 | 15969 ft | 351 kts | 168° |
| 2026-05-07 21:59 | 55.25611 | 12.88836 | 16664 ft | 355 kts | 169° |
| 2026-05-07 21:59 | 55.23175 | 12.89685 | 17369 ft | 359 kts | 169° |
| 2026-05-07 21:59 | 55.20715 | 12.90541 | 18065 ft | 363 kts | 169° |
| 2026-05-07 21:59 | 55.18225 | 12.91406 | 18711 ft | 366 kts | 169° |
| 2026-05-07 22:00 | 55.15712 | 12.92279 | 19275 ft | 370 kts | 169° |
| 2026-05-07 22:00 | 55.13178 | 12.93157 | 19819 ft | 373 kts | 169° |
| 2026-05-07 22:00 | 55.10623 | 12.94042 | 20352 ft | 376 kts | 169° |
| 2026-05-07 22:00 | 55.08048 | 12.94932 | 20857 ft | 379 kts | 169° |
| 2026-05-07 22:01 | 55.05449 | 12.95829 | 21363 ft | 382 kts | 169° |
| 2026-05-07 22:01 | 55.02832 | 12.96732 | 21850 ft | 385 kts | 168° |
| 2026-05-07 22:01 | 55.00189 | 12.97641 | 22310 ft | 388 kts | 168° |
| 2026-05-07 22:01 | 54.97532 | 12.98555 | 22765 ft | 391 kts | 168° |
| 2026-05-07 22:02 | 54.94854 | 12.99473 | 23185 ft | 393 kts | 168° |
| 2026-05-07 22:02 | 54.92161 | 13.00399 | 23584 ft | 396 kts | 168° |
| 2026-05-07 22:02 | 54.89448 | 13.01330 | 23956 ft | 398 kts | 168° |
| 2026-05-07 22:02 | 54.86741 | 13.02239 | 24514 ft | 394 kts | 170° |
| 2026-05-07 22:03 | 54.84017 | 13.02617 | 24974 ft | 393 kts | 178° |
| 2026-05-07 22:03 | 54.81271 | 13.02714 | 25344 ft | 395 kts | 179° |
| 2026-05-07 22:03 | 54.78519 | 13.02792 | 25696 ft | 397 kts | 178° |
| 2026-05-07 22:03 | 54.75752 | 13.02894 | 26022 ft | 399 kts | 178° |
| 2026-05-07 22:04 | 54.72973 | 13.03015 | 26347 ft | 401 kts | 178° |
| 2026-05-07 22:04 | 54.70185 | 13.03147 | 26662 ft | 402 kts | 178° |
| 2026-05-07 22:04 | 54.67377 | 13.03284 | 26968 ft | 404 kts | 178° |
| 2026-05-07 22:04 | 54.64561 | 13.03424 | 27262 ft | 406 kts | 177° |
| 2026-05-07 22:05 | 54.61733 | 13.03566 | 27580 ft | 408 kts | 178° |
| 2026-05-07 22:05 | 54.58890 | 13.03707 | 27856 ft | 409 kts | 178° |
| 2026-05-07 22:05 | 54.56042 | 13.03846 | 28134 ft | 411 kts | 178° |
| 2026-05-07 22:05 | 54.53175 | 13.03986 | 28416 ft | 412 kts | 178° |
| 2026-05-07 22:06 | 54.50304 | 13.04127 | 28680 ft | 414 kts | 178° |
| 2026-05-07 22:06 | 54.47425 | 13.04268 | 28936 ft | 415 kts | 178° |
| 2026-05-07 22:06 | 54.44531 | 13.04410 | 29185 ft | 417 kts | 178° |
| 2026-05-07 22:06 | 54.41627 | 13.04551 | 29427 ft | 418 kts | 178° |
| 2026-05-07 22:07 | 54.38749 | 13.04691 | 29665 ft | 420 kts | 178° |
| 2026-05-07 22:07 | 54.35824 | 13.04834 | 29909 ft | 422 kts | 178° |
| 2026-05-07 22:07 | 54.32846 | 13.04979 | 30127 ft | 423 kts | 178° |
| 2026-05-07 22:07 | 54.29936 | 13.05119 | 30328 ft | 425 kts | 178° |
| 2026-05-07 22:08 | 54.26980 | 13.05259 | 30536 ft | 425 kts | 178° |
| 2026-05-07 22:08 | 54.24023 | 13.05400 | 30759 ft | 425 kts | 178° |
| 2026-05-07 22:08 | 54.21066 | 13.05543 | 31021 ft | 425 kts | 178° |
| 2026-05-07 22:08 | 54.18116 | 13.05686 | 31193 ft | 423 kts | 178° |
| 2026-05-07 22:09 | 54.12242 | 13.05972 | 31202 ft | 422 kts | 178° |
| 2026-05-07 22:09 | 54.06372 | 13.06253 | 31183 ft | 422 kts | 178° |
| 2026-05-07 22:10 | 54.00504 | 13.06533 | 31182 ft | 421 kts | 179° |
| 2026-05-07 22:10 | 53.94668 | 13.06813 | 31023 ft | 413 kts | 179° |
| 2026-05-07 22:11 | 53.91801 | 13.06949 | 30211 ft | 414 kts | 179° |
| 2026-05-07 22:11 | 53.88921 | 13.07085 | 29391 ft | 411 kts | 179° |
| 2026-05-07 22:11 | 53.86079 | 13.07220 | 28642 ft | 408 kts | 179° |
| 2026-05-07 22:11 | 53.83268 | 13.07354 | 28032 ft | 401 kts | 179° |
| 2026-05-07 22:12 | 53.80497 | 13.07486 | 27478 ft | 394 kts | 179° |
| 2026-05-07 22:12 | 53.77783 | 13.07614 | 26968 ft | 386 kts | 179° |
| 2026-05-07 22:12 | 53.75121 | 13.07742 | 26503 ft | 378 kts | 179° |
| 2026-05-07 22:12 | 53.72522 | 13.07866 | 26049 ft | 370 kts | 179° |
| 2026-05-07 22:13 | 53.69975 | 13.07984 | 25628 ft | 363 kts | 179° |
| 2026-05-07 22:13 | 53.67468 | 13.08101 | 25227 ft | 357 kts | 179° |
| 2026-05-07 22:13 | 53.64995 | 13.08216 | 24804 ft | 353 kts | 179° |
| 2026-05-07 22:13 | 53.62557 | 13.08330 | 24374 ft | 349 kts | 179° |
| 2026-05-07 22:14 | 53.60144 | 13.08444 | 23964 ft | 345 kts | 179° |
| 2026-05-07 22:14 | 53.57758 | 13.08557 | 23537 ft | 340 kts | 179° |
| 2026-05-07 22:14 | 53.55411 | 13.08665 | 23096 ft | 335 kts | 179° |
| 2026-05-07 22:14 | 53.53095 | 13.08771 | 22684 ft | 330 kts | 179° |
| 2026-05-07 22:15 | 53.50813 | 13.08876 | 22267 ft | 328 kts | 179° |
| 2026-05-07 22:15 | 53.48545 | 13.08983 | 21866 ft | 326 kts | 179° |
| 2026-05-07 22:15 | 53.46279 | 13.09090 | 21477 ft | 325 kts | 179° |
| 2026-05-07 22:15 | 53.44031 | 13.09195 | 21089 ft | 322 kts | 179° |
| 2026-05-07 22:16 | 53.41804 | 13.09300 | 20705 ft | 319 kts | 179° |
| 2026-05-07 22:16 | 53.39585 | 13.09404 | 20334 ft | 319 kts | 179° |
| 2026-05-07 22:16 | 53.37381 | 13.09506 | 19981 ft | 315 kts | 179° |
| 2026-05-07 22:16 | 53.35191 | 13.09607 | 19629 ft | 314 kts | 179° |
| 2026-05-07 22:17 | 53.33010 | 13.09708 | 19278 ft | 313 kts | 179° |
| 2026-05-07 22:17 | 53.30834 | 13.09807 | 18918 ft | 313 kts | 179° |
| 2026-05-07 22:17 | 53.28667 | 13.09907 | 18568 ft | 310 kts | 179° |
| 2026-05-07 22:17 | 53.26518 | 13.10006 | 18204 ft | 310 kts | 179° |
| 2026-05-07 22:18 | 53.24373 | 13.10106 | 17841 ft | 306 kts | 179° |
| 2026-05-07 22:18 | 53.20132 | 13.10299 | 17151 ft | 303 kts | 179° |
| 2026-05-07 22:18 | 53.18039 | 13.10397 | 16814 ft | 301 kts | 179° |
| 2026-05-07 22:19 | 53.15951 | 13.10492 | 16490 ft | 300 kts | 179° |
| 2026-05-07 22:19 | 53.13904 | 13.10585 | 16193 ft | 297 kts | 179° |
| 2026-05-07 22:19 | 53.11845 | 13.10680 | 15891 ft | 295 kts | 179° |
| 2026-05-07 22:19 | 53.09801 | 13.10773 | 15589 ft | 293 kts | 179° |
| 2026-05-07 22:20 | 53.07759 | 13.10867 | 15294 ft | 293 kts | 179° |
| 2026-05-07 22:20 | 53.05733 | 13.10959 | 14980 ft | 291 kts | 179° |
| 2026-05-07 22:20 | 53.03721 | 13.11051 | 14654 ft | 288 kts | 179° |
| 2026-05-07 22:20 | 53.01721 | 13.11142 | 14331 ft | 286 kts | 179° |
| 2026-05-07 22:21 | 52.99756 | 13.11232 | 13979 ft | 280 kts | 179° |
| 2026-05-07 22:21 | 52.97787 | 13.11320 | 13638 ft | 285 kts | 179° |
| 2026-05-07 22:21 | 52.95804 | 13.11410 | 13306 ft | 283 kts | 179° |
| 2026-05-07 22:21 | 52.93833 | 13.11500 | 13010 ft | 282 kts | 179° |
| 2026-05-07 22:22 | 52.91878 | 13.11589 | 12707 ft | 282 kts | 179° |
| 2026-05-07 22:22 | 52.89911 | 13.11677 | 12395 ft | 282 kts | 179° |
| 2026-05-07 22:22 | 52.87962 | 13.11767 | 12081 ft | 279 kts | 179° |
| 2026-05-07 22:22 | 52.86020 | 13.11857 | 11775 ft | 280 kts | 179° |
| 2026-05-07 22:23 | 52.84075 | 13.11945 | 11492 ft | 277 kts | 179° |
| 2026-05-07 22:23 | 52.82147 | 13.12031 | 11196 ft | 277 kts | 179° |
| 2026-05-07 22:23 | 52.80218 | 13.12117 | 10895 ft | 277 kts | 179° |
| 2026-05-07 22:23 | 52.78296 | 13.12202 | 10599 ft | 275 kts | 178° |
| 2026-05-07 22:24 | 52.76383 | 13.12288 | 10309 ft | 274 kts | 178° |
| 2026-05-07 22:24 | 52.74481 | 13.12374 | 10020 ft | 271 kts | 178° |
| 2026-05-07 22:24 | 52.72592 | 13.12460 | 9696 ft | 272 kts | 178° |
| 2026-05-07 22:24 | 52.70705 | 13.12545 | 9371 ft | 271 kts | 178° |
| 2026-05-07 22:25 | 52.68828 | 13.12629 | 9062 ft | 269 kts | 178° |
| 2026-05-07 22:25 | 52.66969 | 13.12713 | 8761 ft | 267 kts | 178° |
| 2026-05-07 22:25 | 52.65118 | 13.12797 | 8457 ft | 266 kts | 178° |
| 2026-05-07 22:25 | 52.63276 | 13.12880 | 8176 ft | 265 kts | 178° |
| 2026-05-07 22:26 | 52.61442 | 13.12963 | 7887 ft | 264 kts | 178° |
| 2026-05-07 22:26 | 52.59621 | 13.13045 | 7612 ft | 259 kts | 178° |
| 2026-05-07 22:26 | 52.57813 | 13.13126 | 7331 ft | 260 kts | 178° |
| 2026-05-07 22:26 | 52.56005 | 13.13205 | 7038 ft | 264 kts | 178° |
| 2026-05-07 22:27 | 52.54099 | 13.13111 | 6764 ft | 278 kts | 184° |
| 2026-05-07 22:27 | 52.52182 | 13.12841 | 6480 ft | 277 kts | 185° |
| 2026-05-07 22:27 | 52.50273 | 13.12529 | 6165 ft | 273 kts | 185° |
| 2026-05-07 22:27 | 52.48390 | 13.12210 | 5832 ft | 273 kts | 185° |
| 2026-05-07 22:28 | 52.46506 | 13.11884 | 5464 ft | 271 kts | 185° |
| 2026-05-07 22:28 | 52.44629 | 13.11558 | 5087 ft | 270 kts | 185° |
| 2026-05-07 22:28 | 52.42766 | 13.11231 | 4698 ft | 269 kts | 185° |
| 2026-05-07 22:28 | 52.40918 | 13.10906 | 4326 ft | 266 kts | 185° |
| 2026-05-07 22:29 | 52.39102 | 13.10785 | 4057 ft | 263 kts | 169° |
| 2026-05-07 22:29 | 52.37374 | 13.11643 | 3907 ft | 249 kts | 156° |
| 2026-05-07 22:29 | 52.35849 | 13.12698 | 3752 ft | 234 kts | 155° |
| 2026-05-07 22:29 | 52.34407 | 13.13717 | 3596 ft | 218 kts | 155° |
| 2026-05-07 22:30 | 52.33102 | 13.14801 | 3435 ft | 207 kts | 137° |
| 2026-05-07 22:30 | 52.32155 | 13.16544 | 3304 ft | 205 kts | 126° |
| 2026-05-07 22:30 | 52.31305 | 13.18404 | 3173 ft | 204 kts | 125° |
| 2026-05-07 22:30 | 52.30459 | 13.20270 | 3043 ft | 204 kts | 125° |
| 2026-05-07 22:31 | 52.29838 | 13.22309 | 2904 ft | 201 kts | 100° |
| 2026-05-07 22:31 | 52.29662 | 13.24566 | 2786 ft | 200 kts | 89° |
| 2026-05-07 22:31 | 52.29821 | 13.26763 | 2672 ft | 185 kts | 76° |
| 2026-05-07 22:31 | 52.30201 | 13.28665 | 2560 ft | 169 kts | 68° |
| 2026-05-07 22:32 | 52.30624 | 13.30393 | 2346 ft | 158 kts | 69° |
| 2026-05-07 22:32 | 52.31012 | 13.32012 | 2136 ft | 150 kts | 69° |
| 2026-05-07 22:32 | 52.31389 | 13.33597 | 1940 ft | 150 kts | 68° |
| 2026-05-07 22:32 | 52.31764 | 13.35171 | 1771 ft | 144 kts | 68° |
| 2026-05-07 22:33 | 52.32107 | 13.36617 | 1579 ft | 134 kts | 68° |
| 2026-05-07 22:33 | 52.32442 | 13.38025 | 1379 ft | 133 kts | 68° |
| 2026-05-07 22:33 | 52.32777 | 13.39434 | 1186 ft | 133 kts | 68° |
| 2026-05-07 22:33 | 52.33114 | 13.40839 | 970 ft | 133 kts | 68° |
| 2026-05-07 22:34 | 52.33442 | 13.42256 | 752 ft | 134 kts | 68° |
| 2026-05-07 22:34 | 52.33791 | 13.43706 | 623 ft | 138 kts | 66° |
| 2026-05-07 22:34 | 52.34141 | 13.45173 | 436 ft | 140 kts | 68° |
| 2026-05-07 22:34 | 52.34500 | 13.46672 | 270 ft | 143 kts | 66° |
| 2026-05-07 22:35 | 52.34858 | 13.48171 | 166 ft | 133 kts | 68° |
| 2026-05-07 22:35 | 52.35150 | 13.49379 | 160 ft | 87 kts | 68° |
| 2026-05-07 22:35 | 52.35252 | 13.49787 | 160 ft | 0 kts | 67° |